FW4270 Weather Reports


time (UTC)temp
F
wind
direction
speed
knots
gust
knots
rain 1hr
in
rain 24hr
in
rain mn
in
humidity
%
barometer
mb
20260507151148 86 125 1.7 5.2 0.00 0.00 0.00 52 1010.1
20260507150640 86 132 1.7 3.5 0.00 0.00 0.00 52 1010.0
20260507150134 86 135 1.7 3.5 0.00 0.00 0.00 52 1010.0
20260507145854 86 135 1.7 4.3 0.00 0.00 0.00 52 1009.9
20260507145123 86 135 1.7 4.3 0.00 0.00 0.00 52 1009.8
20260507144616 86 140 1.7 4.3 0.00 0.00 0.00 52 1009.8
20260507144111 87 128 1.7 5.2 0.00 0.00 0.00 52 1009.7
20260507143605 87 127 1.7 5.2 0.00 0.00 0.00 51 1009.7
20260507143059 87 121 2.6 5.2 0.00 0.00 0.00 51 1009.7
20260507142817 87 113 2.6 6.1 0.00 0.00 0.00 51 1009.6
20260507142046 87 118 2.6 6.1 0.00 0.00 0.00 51 1009.6
20260507141540 87 115 2.6 6.1 0.00 0.00 0.00 51 1009.6
20260507141034 87 117 2.6 6.1 0.00 0.00 0.00 50 1009.6
20260507140529 87 130 2.6 6.1 0.00 0.00 0.00 50 1009.6
20260507140242 87 123 2.6 7.0 0.00 0.00 0.00 50 1009.5
20260507135517 88 130 1.7 7.0 0.00 0.00 0.00 50 1009.5
20260507135240 88 132 2.6 6.1 0.00 0.00 0.00 50 1009.4
20260507134504 88 123 3.5 7.0 0.00 0.00 0.00 50 1009.3
20260507133959 88 120 3.5 9.6 0.00 0.00 0.00 50 1009.3
20260507133712 88 109 3.5 9.6 0.00 0.00 0.00 50 1009.3
20260507132947 88 122 2.6 7.0 0.00 0.00 0.00 50 1009.3
20260507132441 88 121 2.6 7.0 0.00 0.00 0.00 50 1009.2
20260507131935 89 127 3.5 7.0 0.00 0.00 0.00 50 1009.2
20260507131429 89 102 2.6 7.0 0.00 0.00 0.00 49 1009.2
20260507130923 89 97 2.6 6.1 0.00 0.00 0.00 49 1009.1
20260507130417 89 76 2.6 6.1 0.00 0.00 0.00 49 1009.1
20260507125910 90 92 1.7 6.1 0.00 0.00 0.00 48 1009.0
20260507125405 90 128 1.7 4.3 0.00 0.00 0.00 48 1009.0
20260507124858 90 136 2.6 4.3 0.00 0.00 0.00 48 1008.9
20260507124352 90 138 2.6 6.1 0.00 0.00 0.00 48 1008.9
20260507123846 90 160 2.6 6.1 0.00 0.00 0.00 47 1009.0
20260507123340 91 168 2.6 5.2 0.00 0.00 0.00 47 1009.0
20260507122840 91 190 1.7 5.2 0.00 0.00 0.00 48 1009.0
20260507122336 91 138 0.9 4.3 0.00 0.00 0.00 47 1009.0
20260507121836 91 138 1.7 4.3 0.00 0.00 0.00 47 1009.0
20260507121334 91 146 3.5 7.8 0.00 0.00 0.00 47 1009.0
20260507120834 91 132 4.3 9.6 0.00 0.00 0.00 47 1009.1
20260507120333 91 175 3.5 9.6 0.00 0.00 0.00 47 1009.1
20260507115834 91 192 3.5 7.0 0.00 0.00 0.00 47 1009.1
20260507115331 91 173 3.5 8.7 0.00 0.00 0.00 47 1009.1
20260507114832 91 166 3.5 8.7 0.00 0.00 0.00 47 1009.1
20260507114335 92 184 3.5 7.0 0.00 0.00 0.00 46 1009.1
20260507114104 92 200 3.5 7.0 0.00 0.00 0.00 46 1009.0
20260507113331 92 160 2.6 6.1 0.00 0.00 0.00 46 1009.0
20260507112831 92 205 1.7 5.2 0.00 0.00 0.00 46 1008.9
20260507112331 92 187 2.6 5.2 0.00 0.00 0.00 46 1009.0
20260507111827 91 48 3.5 7.8 0.00 0.00 0.00 46 1009.0
20260507111328 92 107 4.3 8.7 0.00 0.00 0.00 45 1009.0
20260507110827 92 129 2.6 8.7 0.00 0.00 0.00 45 1008.9
20260507110328 92 154 1.7 7.0 0.00 0.00 0.00 45 1009.0
20260507105828 92 150 3.5 7.0 0.00 0.00 0.00 44 1009.0
20260507105324 92 184 3.5 7.0 0.00 0.00 0.00 44 1009.0
20260507105052 92 149 4.3 9.6 0.00 0.00 0.00 46 1008.9
20260507104324 92 128 4.3 9.6 0.00 0.00 0.00 45 1008.9
20260507103824 92 168 2.6 7.0 0.00 0.00 0.00 44 1009.0
20260507103324 93 173 1.7 6.1 0.00 0.00 0.00 44 1009.1
20260507102823 92 163 2.6 8.7 0.00 0.00 0.00 44 1009.1
20260507102326 92 163 4.3 9.6 0.00 0.00 0.00 44 1009.1
20260507101824 92 227 4.3 9.6 0.00 0.00 0.00 44 1009.2
20260507101324 92 205 4.3 9.6 0.00 0.00 0.00 44 1009.2
20260507100826 93 177 3.5 9.6 0.00 0.00 0.00 43 1009.3
20260507100554 94 194 1.7 6.1 0.00 0.00 0.00 43 1009.3
20260507095824 93 186 2.6 6.1 0.00 0.00 0.00 43 1009.4
20260507095324 93 185 2.6 6.1 0.00 0.00 0.00 43 1009.5
20260507094822 93 180 3.5 7.8 0.00 0.00 0.00 43 1009.5
20260507094325 93 171 3.5 7.8 0.00 0.00 0.00 43 1009.5
20260507093822 93 151 2.6 7.8 0.00 0.00 0.00 43 1009.7
20260507093324 93 163 2.6 7.0 0.00 0.00 0.00 43 1009.7
20260507092822 93 153 2.6 7.8 0.00 0.00 0.00 43 1009.8
20260507092549 93 150 0.9 7.8 0.00 0.00 0.00 43 1009.9
20260507091820 92 115 0.9 3.5 0.00 0.00 0.00 43 1009.9
20260507091320 92 114 1.7 5.2 0.00 0.00 0.00 42 1009.9
20260507090820 92 180 3.5 7.0 0.00 0.00 0.00 43 1010.0
20260507090318 91 161 5.2 9.6 0.00 0.00 0.00 43 1010.0
20260507090039 92 165 5.2 13.0 0.00 0.00 0.00 43 1010.1
20260507085324 92 132 5.2 13.0 0.00 0.00 0.00 43 1010.0
20260507084821 92 161 3.5 7.8 0.00 0.00 0.00 43 1010.1
20260507084323 92 134 1.7 7.8 0.00 0.00 0.00 42 1010.2
20260507083823 91 113 3.5 10.4 0.00 0.00 0.00 43 1010.2
20260507083318 91 137 3.5 10.4 0.00 0.00 0.00 42 1010.2
20260507082320 91 148 4.3 10.4 0.00 0.00 0.00 43 1010.4
20260507082039 91 175 4.3 12.2 0.00 0.00 0.00 44 1010.5
20260507081316 91 156 4.3 12.2 0.00 0.00 0.00 44 1010.5
20260507080314 90 185 4.3 7.8 0.00 0.00 0.00 44 1010.4
20260507075810 90 148 4.3 8.7 0.00 0.00 0.00 44 1010.4
20260507075307 90 155 4.3 9.6 0.00 0.00 0.00 44 1010.4
20260507074810 89 167 4.3 9.6 0.00 0.00 0.00 44 1010.5
20260507074308 89 129 3.5 7.8 0.00 0.00 0.00 45 1010.5
20260507073804 89 107 4.3 9.6 0.00 0.00 0.00 44 1010.5
20260507073305 89 117 4.3 9.6 0.00 0.00 0.00 45 1010.5
20260507072805 89 21 2.6 7.8 0.00 0.00 0.00 45 1010.4
20260507072307 89 141 3.5 8.7 0.00 0.00 0.00 46 1010.5
20260507071808 89 94 4.3 10.4 0.00 0.00 0.00 45 1010.6
20260507070301 88 148 5.2 12.2 0.00 0.00 0.00 45 1010.6
20260507070025 88 179 4.3 9.6 0.00 0.00 0.00 45 1010.6
20260507065524 88 149 5.2 8.7 0.00 0.00 0.00 45 1010.6
20260507064759 88 163 4.3 10.4 0.00 0.00 0.00 45 1010.7
20260507064255 88 92 3.5 10.4 0.00 0.00 0.00 46 1010.7
20260507063757 88 159 3.5 8.7 0.00 0.00 0.00 46 1010.7
20260507063529 87 112 4.3 9.6 0.00 0.00 0.00 46 1010.7
20260507062754 87 112 4.3 9.6 0.00 0.00 0.00 46 1010.7
20260507062254 87 127 4.3 8.7 0.00 0.00 0.00 46 1010.9
20260507061756 87 171 6.1 11.3 0.00 0.00 0.00 46 1010.9
20260507061259 86 143 6.1 14.8 0.00 0.00 0.00 46 1011.0
20260507061021 87 159 4.3 12.2 0.00 0.00 0.00 45 1011.1
20260507060247 87 140 3.5 9.6 0.00 0.00 0.00 45 1010.9
20260507060007 87 121 4.3 10.4 0.00 0.00 0.00 46 1011.0
20260507055455 86 74 4.3 10.4 0.00 0.00 0.00 46 1011.0
20260507054729 86 142 3.5 7.8 0.00 0.00 0.00 46 1010.9
20260507054223 86 90 3.5 7.8 0.00 0.00 0.00 47 1011.0
20260507053717 85 127 4.3 9.6 0.00 0.00 0.00 47 1011.0
20260507053211 85 162 4.3 9.6 0.00 0.00 0.00 47 1011.0
20260507052705 85 132 3.5 8.7 0.00 0.00 0.00 48 1011.0
20260507052158 84 113 3.5 10.4 0.00 0.00 0.00 48 1011.0
20260507051910 84 155 5.2 10.4 0.00 0.00 0.00 48 1011.0
20260507051146 84 88 5.2 11.3 0.00 0.00 0.00 48 1011.0
20260507050641 83 161 5.2 11.3 0.00 0.00 0.00 48 1011.0
20260507050136 83 101 5.2 9.6 0.00 0.00 0.00 48 1011.0
20260507045849 83 138 5.2 9.6 0.00 0.00 0.00 48 1011.0
20260507045123 83 105 5.2 9.6 0.00 0.00 0.00 48 1011.0
20260507044617 83 104 5.2 12.2 0.00 0.00 0.00 48 1010.9
20260507044111 83 94 5.2 12.2 0.00 0.00 0.00 48 1010.9
20260507043605 83 108 4.3 9.6 0.00 0.00 0.00 48 1010.8
20260507043059 82 99 4.3 11.3 0.00 0.00 0.00 48 1010.8
20260507042552 82 78 4.3 11.3 0.00 0.00 0.00 48 1010.8
20260507042046 82 106 4.3 10.4 0.00 0.00 0.00 47 1010.9
20260507041540 81 129 5.2 10.4 0.00 0.00 0.00 48 1010.8
20260507041036 81 81 5.2 9.6 0.00 0.00 0.00 48 1010.9
20260507040529 81 103 4.3 8.7 0.00 0.00 0.00 48 1010.9
20260507040022 81 77 4.3 10.4 0.00 0.00 0.00 49 1010.9
20260507035521 80 115 5.2 10.4 0.00 0.00 0.00 48 1010.8
20260507035011 80 117 5.2 8.7 0.00 0.00 0.00 49 1010.9
20260507034505 80 94 4.3 11.3 0.00 0.00 0.00 50 1010.9
20260507033959 80 99 5.2 11.3 0.00 0.00 0.00 49 1010.8
20260507033453 79 69 5.2 9.6 0.00 0.00 0.00 50 1010.7
20260507032947 79 61 4.3 9.6 0.00 0.00 0.00 51 1010.7
20260507032441 79 106 4.3 10.4 0.00 0.00 0.00 51 1010.7
20260507031934 79 132 4.3 10.4 0.00 0.00 0.00 52 1010.7
20260507031429 78 68 4.3 9.6 0.00 0.00 0.00 52 1010.7
20260507030923 78 88 3.5 8.7 0.00 0.00 0.00 53 1010.6
20260507030416 78 129 4.3 9.6 0.00 0.00 0.00 53 1010.6
20260507025910 78 96 4.3 9.6 0.00 0.00 0.00 53 1010.5
20260507025410 78 82 3.5 9.6 0.00 0.00 0.00 53 1010.6
20260507024910 78 96 3.5 7.8 0.00 0.00 0.00 53 1010.6
20260507024410 77 71 2.6 7.8 0.00 0.00 0.00 54 1010.5
20260507024136 77 104 3.5 7.8 0.00 0.00 0.00 55 1010.4
20260507023409 77 97 3.5 10.4 0.00 0.00 0.00 55 1010.2
20260507022909 77 92 3.5 10.4 0.00 0.00 0.00 56 1010.2
20260507022410 77 93 2.6 7.0 0.00 0.00 0.00 57 1010.1
20260507021910 76 86 2.6 7.0 0.00 0.00 0.00 58 1010.1
20260507021409 76 91 2.6 7.0 0.00 0.00 0.00 58 1010.0
20260507020911 76 71 2.6 6.1 0.00 0.00 0.00 59 1009.9
20260507020627 75 80 2.6 7.0 0.00 0.00 0.00 60 1009.8
20260507015909 75 82 2.6 7.0 0.00 0.00 0.00 61 1009.8
20260507015409 75 94 3.5 8.7 0.00 0.00 0.00 62 1009.7
20260507014909 74 90 2.6 8.7 0.00 0.00 0.00 61 1009.7
20260507014631 74 86 0.9 4.3 0.00 0.00 0.00 63 1009.6
20260507013911 74 96 1.7 6.1 0.00 0.00 0.00 64 1009.6
20260507013411 74 97 2.6 7.8 0.00 0.00 0.00 64 1009.4
20260507013133 73 84 1.7 7.8 0.00 0.00 0.00 65 1009.4
20260507012638 73 85 0.9 4.3 0.00 0.00 0.00 67 1009.3
20260507011912 73 100 1.7 3.5 0.00 0.00 0.00 67 1009.2
20260507011412 73 111 2.6 5.2 0.00 0.00 0.00 67 1009.1
20260507010914 73 111 2.6 5.2 0.00 0.00 0.00 67 1009.0
20260507010642 73 105 2.6 5.2 0.00 0.00 0.00 68 1009.0
20260507010131 73 125 1.7 5.2 0.00 0.00 0.00 68 1009.0
20260507005413 73 99 0.9 6.1 0.00 0.00 0.00 68 1008.9
20260507004912 72 98 0.0 6.1 0.00 0.00 0.00 68 1008.9
20260507004409 73 85 0.0 1.7 0.00 0.00 0.00 68 1008.7
20260507003912 73 85 0.9 3.5 0.00 0.00 0.00 68 1008.7
20260507003640 73 86 0.9 3.5 0.00 0.00 0.00 68 1008.5
20260507002909 73 96 0.9 2.6 0.00 0.00 0.00 67 1008.4
20260507002411 73 97 0.0 2.6 0.00 0.00 0.00 67 1008.2
20260507001907 73 89 0.0 0.0 0.00 0.00 0.00 67 1008.1
20260507001407 73 90 0.0 0.0 0.00 0.00 0.00 67 1008.1
20260507000907 73 89 0.0 1.7 0.00 0.00 0.00 67 1008.0
20260507000406 73 86 1.7 3.5 0.00 0.00 0.00 67 1007.9
20260507000127 73 86 1.7 3.5 0.00 0.00 0.00 67 1008.0
20260506235408 73 88 0.9 2.6 0.00 0.00 0.00 67 1007.9
20260506234905 73 88 0.0 2.6 0.00 0.00 0.00 67 1007.8
20260506234624 73 39 0.0 0.0 0.00 0.00 0.00 68 1007.8
20260506233905 73 39 0.0 0.0 0.00 0.00 0.00 68 1007.6
20260506233635 73 39 0.0 0.0 0.00 0.00 0.00 69 1007.6
20260506232626 73 39 0.0 0.0 0.00 0.00 0.00 69 1007.5
20260506231402 74 39 0.0 0.0 0.00 0.00 0.00 68 1007.5
20260506231130 74 39 0.0 0.0 0.00 0.00 0.00 68 1007.5
20260506230403 74 39 0.0 0.0 0.00 0.00 0.00 68 1007.4
20260506225902 74 39 0.0 0.0 0.00 0.00 0.00 67 1007.5
20260506225401 74 39 0.0 0.0 0.00 0.00 0.00 67 1007.5
20260506225128 74 39 0.0 0.0 0.00 0.00 0.00 66 1007.4
20260506224357 75 39 0.0 0.0 0.00 0.00 0.00 65 1007.5
20260506223857 75 39 0.0 0.0 0.00 0.00 0.00 65 1007.4
20260506223359 75 39 0.0 0.0 0.00 0.00 0.00 64 1007.4
20260506222859 75 39 0.0 0.0 0.00 0.00 0.00 63 1007.4
20260506222359 75 39 0.0 0.0 0.00 0.00 0.00 63 1007.4
20260506221857 75 40 0.0 1.7 0.00 0.00 0.00 62 1007.4
20260506221356 75 40 0.0 1.7 0.00 0.00 0.00 63 1007.4
20260506221119 75 40 0.0 1.7 0.00 0.00 0.00 63 1007.3
20260506220356 75 40 0.0 0.0 0.00 0.00 0.00 62 1007.5
20260506215900 75 40 0.0 0.0 0.00 0.00 0.00 62 1007.4
20260506215357 75 40 0.0 0.0 0.00 0.00 0.00 62 1007.3
20260506214853 75 40 0.0 0.0 0.00 0.00 0.00 62 1007.4
20260506214355 75 40 0.0 0.0 0.00 0.00 0.00 62 1007.4
20260506214121 76 40 0.0 0.0 0.00 0.00 0.00 62 1007.4
20260506213347 76 40 0.0 0.0 0.00 0.00 0.00 61 1007.3
20260506212848 76 40 0.0 0.0 0.00 0.00 0.00 61 1007.3
20260506212345 76 40 0.0 0.0 0.00 0.00 0.00 61 1007.2
20260506211846 76 40 0.0 1.7 0.00 0.00 0.00 61 1007.3
20260506211344 76 40 0.0 1.7 0.00 0.00 0.00 61 1007.3
20260506210841 76 40 0.0 2.6 0.00 0.00 0.00 61 1007.4
20260506210345 76 40 0.9 3.5 0.00 0.00 0.00 60 1007.4
20260506205843 76 40 1.7 5.2 0.00 0.00 0.00 60 1007.3
20260506205343 76 38 1.7 5.2 0.00 0.00 0.00 60 1007.3
20260506205103 76 48 1.7 4.3 0.00 0.00 0.00 60 1007.3
20260506204342 76 42 0.9 3.5 0.00 0.00 0.00 61 1007.3
20260506204106 76 59 0.0 0.0 0.00 0.00 0.00 62 1007.3
20260506203342 76 59 0.0 0.0 0.00 0.00 0.00 62 1007.2
20260506202835 76 59 0.0 0.0 0.00 0.00 0.00 62 1007.3
20260506202559 76 59 0.0 0.0 0.00 0.00 0.00 62 1007.5
20260506201824 76 59 0.0 0.0 0.00 0.00 0.00 62 1007.3
20260506201319 77 59 0.0 0.0 0.00 0.00 0.00 61 1007.3
20260506200812 77 59 0.0 0.0 0.00 0.00 0.00 61 1007.4
20260506200306 77 59 0.0 0.0 0.00 0.00 0.00 61 1007.4
20260506195800 77 59 0.0 0.0 0.00 0.00 0.00 61 1007.4
20260506195254 77 59 0.0 0.0 0.00 0.00 0.00 61 1007.5
20260506194748 77 59 0.0 0.0 0.00 0.00 0.00 61 1007.5
20260506194242 77 59 0.0 0.0 0.00 0.00 0.00 61 1007.7
20260506193736 77 59 0.0 0.0 0.00 0.00 0.00 61 1007.6
20260506193230 77 59 0.0 0.0 0.00 0.00 0.00 61 1007.7
20260506192724 78 59 0.0 0.0 0.00 0.00 0.00 61 1007.8
20260506192218 78 59 0.0 0.0 0.00 0.00 0.00 60 1007.8
20260506191712 78 59 0.0 0.0 0.00 0.00 0.00 59 1007.9
20260506191206 78 59 0.0 0.0 0.00 0.00 0.00 59 1008.0
20260506190700 78 59 0.0 0.0 0.00 0.00 0.00 58 1008.0
20260506190154 78 59 0.0 0.0 0.00 0.00 0.00 58 1008.1
20260506185651 78 59 0.0 0.0 0.00 0.00 0.00 58 1008.1
20260506185151 78 59 0.0 0.0 0.00 0.00 0.00 58 1008.1
20260506184911 79 59 0.0 0.0 0.00 0.00 0.00 58 1008.2
20260506184151 79 60 0.0 0.0 0.00 0.00 0.00 58 1008.2
20260506183651 79 60 0.0 0.0 0.00 0.00 0.00 58 1008.2
20260506183153 79 60 0.0 0.0 0.00 0.00 0.00 58 1008.4
20260506182653 79 60 0.0 0.0 0.00 0.00 0.00 58 1008.4
20260506182150 79 59 0.0 0.0 0.00 0.00 0.00 58 1008.2
20260506181653 79 58 0.0 0.0 0.00 0.00 0.00 58 1008.2
20260506181149 79 58 0.0 0.0 0.00 0.00 0.00 57 1008.2
20260506180647 79 58 0.0 0.0 0.00 0.00 0.00 57 1008.2
20260506180149 79 58 0.0 0.0 0.00 0.00 0.00 57 1008.2
20260506175647 79 58 0.0 1.7 0.00 0.00 0.00 57 1008.2
20260506175149 80 58 0.9 2.6 0.00 0.00 0.00 57 1008.2
20260506174653 80 58 0.9 2.6 0.00 0.00 0.00 56 1008.1
20260506174154 80 58 0.0 2.6 0.00 0.00 0.00 56 1008.2
20260506173653 80 58 0.0 0.0 0.00 0.00 0.00 56 1008.2
20260506173418 80 58 0.0 2.6 0.00 0.00 0.00 57 1008.4
20260506172647 80 58 0.0 2.6 0.00 0.00 0.00 57 1008.4
20260506172147 80 57 0.0 1.7 0.00 0.00 0.00 57 1008.4
20260506171649 80 57 0.0 0.9 0.00 0.00 0.00 57 1008.4
20260506171145 80 57 0.0 2.6 0.00 0.00 0.00 57 1008.4
20260506170908 81 57 0.0 2.6 0.00 0.00 0.00 57 1008.2
20260506170145 81 43 0.0 0.9 0.00 0.00 0.00 57 1008.2
20260506165645 81 33 0.9 4.3 0.00 0.00 0.00 56 1008.0
20260506165140 81 32 0.9 4.3 0.00 0.00 0.00 56 1007.9
20260506164641 81 43 0.9 3.5 0.00 0.00 0.00 55 1007.9
20260506164142 82 43 1.7 3.5 0.00 0.00 0.00 55 1007.9
20260506163635 82 45 1.7 3.5 0.00 0.00 0.00 54 1008.0
20260506163128 82 15 0.9 3.5 0.00 0.00 0.00 53 1008.0
20260506162622 83 5 0.9 3.5 0.00 0.00 0.00 53 1007.9
20260506162116 83 5 0.9 3.5 0.00 0.00 0.00 52 1007.9
20260506161841 84 282 0.9 2.6 0.00 0.00 0.00 52 1007.9
20260506161338 84 188 0.9 2.6 0.00 0.00 0.00 51 1007.9
20260506160619 84 173 0.0 1.7 0.00 0.00 0.00 49 1007.9
20260506160119 84 173 0.0 2.6 0.00 0.00 0.00 50 1007.8
20260506155619 84 173 0.9 4.3 0.00 0.00 0.00 49 1007.7
20260506155117 84 173 1.7 4.3 0.00 0.00 0.00 49 1007.7
20260506154615 85 173 1.7 4.3 0.00 0.00 0.00 49 1007.7
20260506154113 85 160 1.7 5.2 0.00 0.00 0.00 49 1007.6
20260506153613 85 160 2.6 5.2 0.00 0.00 0.00 49 1007.6
20260506153111 85 154 1.7 4.3 0.00 0.00 0.00 49 1007.6
20260506152843 85 151 2.6 5.2 0.00 0.00 0.00 49 1007.4
20260506152110 85 155 2.6 5.2 0.00 0.00 0.00 49 1007.3
20260506151611 85 159 2.6 5.2 0.00 0.00 0.00 49 1007.3